Pagrindinis puslapis
METAR-TAF:

METAR-TAF

Oro uostai :

Malmė, Švedija

platuma: 55-33N, ilguma: 013-22E, Aukštis: 106 m

Dabartinis oras

Ataskaita buvo paskelbta 25 minutes, ne 19:20 UTC
Vėjas 4 kt iš Pietryčių
Temperatūra 12°C
Drėgmė 94%
Slėgis 1003 hPa
Matomumas: 4100 m
rūkana

METAR: ESMS 231920Z 14004KT 4100 BR NSC 12/11 Q1003

Laikas: 21:45 (19:45 UTC)

Prognozė

Ataskaita buvo paskelbta 1 valandą ir 18 minutes, ne 18:27 UTC
Prognozė galioja nuo 23 metu 18 UTC su 24 metu 18 UTC
Vėjas 10 kt iš Pietų
Matomumas: 8000 m
Išsisklaidę debesys ne aukštis 3000 ft
Laikinai
nuo 23 metu 18 UTC su 24 metu 06 UTC
Matomumas: 2500 m
rūkana
Laikinai
nuo 24 metu 09 UTC su 24 metu 11 UTC
Vėjas 15 kt iš Pietvakarių su gūsio iki 25 kt
Mažai debesys ne aukštis 3000 ft, Liūtiniai kamuoliniai debesys.
Tapsmas
nuo 24 metu 11 UTC su 24 metu 13 UTC
Vėjas 15 kt iš Vakarų/Pietvakarių su gūsio iki 25 kt

TAF: ESMS 231827Z 2318/2418 17010KT 8000 SCT030 TEMPO 2318/2406 2500 BR TEMPO 2409/2411 22015G25KT FEW030CB BECMG 2411/2413 24015G25KT

Orai ataskaitas ir orų prognozės (METAR, TAF).

turimą stotys yra geltonos ir raudonos taškus žemėlapyje.

Perkelti pele per norėdami pamatyti stoties vardą.

Tada spustelėkite, norėdami matyti oro stebėjimo ir prognozės.

Norėdami pakeisti žemėlapį: spustelėkite ant žalios mygtukų su juodo kryžiaus žemyn,; žalią mygtuką su brūkšneliu, jei norite nutolinti; arba žalių rodyklių gretimoms žemėlapius.


METAR-TAF: